sensor_id;sensor_type;location;lat;lon;timestamp;pressure;altitude;pressure_sealevel;temperature;humidity
53908;BME280;40469;47.998;7.794;2022-12-11T00:00:05;98402.44;;;-2.87;100.00
53908;BME280;40469;47.998;7.794;2022-12-11T00:02:30;98402.19;;;-2.93;100.00
53908;BME280;40469;47.998;7.794;2022-12-11T00:04:56;98402.97;;;-2.96;100.00
53908;BME280;40469;47.998;7.794;2022-12-11T00:07:21;98396.22;;;-2.94;100.00
53908;BME280;40469;47.998;7.794;2022-12-11T00:09:46;98398.72;;;-2.95;100.00
53908;BME280;40469;47.998;7.794;2022-12-11T00:12:12;98404.63;;;-2.98;100.00
53908;BME280;40469;47.998;7.794;2022-12-11T00:14:37;98392.72;;;-2.97;100.00
53908;BME280;40469;47.998;7.794;2022-12-11T00:17:03;98403.84;;;-2.95;100.00
53908;BME280;40469;47.998;7.794;2022-12-11T00:19:28;98401.16;;;-2.98;100.00
53908;BME280;40469;47.998;7.794;2022-12-11T00:21:53;98409.78;;;-2.96;100.00
53908;BME280;40469;47.998;7.794;2022-12-11T00:24:19;98408.94;;;-2.95;100.00
53908;BME280;40469;47.998;7.794;2022-12-11T00:26:44;98419.28;;;-2.92;100.00
53908;BME280;40469;47.998;7.794;2022-12-11T00:29:10;98433.06;;;-2.87;100.00
53908;BME280;40469;47.998;7.794;2022-12-11T00:31:39;98423.06;;;-2.81;100.00
53908;BME280;40469;47.998;7.794;2022-12-11T00:34:05;98426.63;;;-2.76;100.00
53908;BME280;40469;47.998;7.794;2022-12-11T00:36:30;98428.69;;;-2.65;100.00
53908;BME280;40469;47.998;7.794;2022-12-11T00:38:55;98432.16;;;-2.63;100.00
53908;BME280;40469;47.998;7.794;2022-12-11T00:41:21;98433.13;;;-2.60;100.00
53908;BME280;40469;47.998;7.794;2022-12-11T00:43:46;98436.41;;;-2.64;100.00
53908;BME280;40469;47.998;7.794;2022-12-11T00:46:12;98434.59;;;-2.67;100.00
53908;BME280;40469;47.998;7.794;2022-12-11T00:48:37;98425.97;;;-2.70;100.00
53908;BME280;40469;47.998;7.794;2022-12-11T00:51:03;98432.94;;;-2.66;100.00
53908;BME280;40469;47.998;7.794;2022-12-11T00:53:28;98434.59;;;-2.68;100.00
53908;BME280;40469;47.998;7.794;2022-12-11T00:55:54;98439.84;;;-2.63;100.00
53908;BME280;40469;47.998;7.794;2022-12-11T00:58:19;98426.38;;;-2.59;100.00
53908;BME280;40469;47.998;7.794;2022-12-11T01:00:45;98427.94;;;-2.63;100.00
53908;BME280;40469;47.998;7.794;2022-12-11T01:03:13;98431.31;;;-2.64;100.00
53908;BME280;40469;47.998;7.794;2022-12-11T01:05:38;98430.44;;;-2.64;100.00
53908;BME280;40469;47.998;7.794;2022-12-11T01:08:05;98439.13;;;-2.59;100.00
53908;BME280;40469;47.998;7.794;2022-12-11T01:10:31;98439.88;;;-2.62;100.00
53908;BME280;40469;47.998;7.794;2022-12-11T01:12:59;98443.97;;;-2.67;100.00
53908;BME280;40469;47.998;7.794;2022-12-11T01:15:37;98451.03;;;-2.60;100.00
53908;BME280;40469;47.998;7.794;2022-12-11T01:18:02;98462.28;;;-2.55;100.00
53908;BME280;40469;47.998;7.794;2022-12-11T01:20:28;98464.09;;;-2.51;100.00
53908;BME280;40469;47.998;7.794;2022-12-11T01:22:56;98473.22;;;-2.59;100.00
53908;BME280;40469;47.998;7.794;2022-12-11T01:25:22;98466.22;;;-2.64;100.00
53908;BME280;40469;47.998;7.794;2022-12-11T01:27:49;98475.72;;;-2.84;100.00
53908;BME280;40469;47.998;7.794;2022-12-11T01:30:15;98470.53;;;-2.88;100.00
53908;BME280;40469;47.998;7.794;2022-12-11T01:32:41;98475.53;;;-2.91;100.00
53908;BME280;40469;47.998;7.794;2022-12-11T01:35:07;98472.53;;;-3.03;100.00
53908;BME280;40469;47.998;7.794;2022-12-11T01:37:33;98473.72;;;-2.93;100.00
53908;BME280;40469;47.998;7.794;2022-12-11T01:40:00;98473.66;;;-2.95;100.00
53908;BME280;40469;47.998;7.794;2022-12-11T01:42:26;98477.03;;;-2.96;100.00
53908;BME280;40469;47.998;7.794;2022-12-11T01:45:22;98478.06;;;-3.15;100.00
53908;BME280;40469;47.998;7.794;2022-12-11T01:47:50;98481.38;;;-3.17;100.00
53908;BME280;40469;47.998;7.794;2022-12-11T01:50:16;98484.16;;;-3.11;100.00
53908;BME280;40469;47.998;7.794;2022-12-11T01:52:43;98483.16;;;-3.15;100.00
53908;BME280;40469;47.998;7.794;2022-12-11T01:55:10;98479.00;;;-3.35;100.00
53908;BME280;40469;47.998;7.794;2022-12-11T01:57:37;98489.31;;;-3.32;100.00
53908;BME280;40469;47.998;7.794;2022-12-11T02:00:05;98480.41;;;-3.21;100.00
53908;BME280;40469;47.998;7.794;2022-12-11T02:02:31;98479.34;;;-3.26;100.00
53908;BME280;40469;47.998;7.794;2022-12-11T02:04:58;98471.31;;;-3.37;100.00
53908;BME280;40469;47.998;7.794;2022-12-11T02:07:23;98475.47;;;-3.39;100.00
53908;BME280;40469;47.998;7.794;2022-12-11T02:09:49;98468.09;;;-3.31;100.00
53908;BME280;40469;47.998;7.794;2022-12-11T02:12:30;98482.59;;;-3.30;100.00
53908;BME280;40469;47.998;7.794;2022-12-11T02:15:16;98478.78;;;-3.41;100.00
53908;BME280;40469;47.998;7.794;2022-12-11T02:17:55;98490.84;;;-3.37;100.00
53908;BME280;40469;47.998;7.794;2022-12-11T02:20:33;98483.94;;;-3.40;100.00
53908;BME280;40469;47.998;7.794;2022-12-11T02:23:26;98492.19;;;-3.25;100.00
53908;BME280;40469;47.998;7.794;2022-12-11T02:30:58;98491.28;;;-3.25;100.00
53908;BME280;40469;47.998;7.794;2022-12-11T02:33:33;98492.06;;;-3.28;100.00
53908;BME280;40469;47.998;7.794;2022-12-11T02:36:03;98492.94;;;-3.27;100.00
53908;BME280;40469;47.998;7.794;2022-12-11T02:38:34;98488.09;;;-3.19;100.00
53908;BME280;40469;47.998;7.794;2022-12-11T02:41:01;98495.66;;;-3.22;100.00
53908;BME280;40469;47.998;7.794;2022-12-11T02:43:30;98496.53;;;-3.22;100.00
53908;BME280;40469;47.998;7.794;2022-12-11T02:45:57;98503.53;;;-3.16;100.00
53908;BME280;40469;47.998;7.794;2022-12-11T02:48:24;98502.03;;;-3.11;100.00
53908;BME280;40469;47.998;7.794;2022-12-11T02:50:52;98499.53;;;-3.10;100.00
53908;BME280;40469;47.998;7.794;2022-12-11T02:53:23;98490.03;;;-3.14;100.00
53908;BME280;40469;47.998;7.794;2022-12-11T02:55:53;98486.56;;;-3.16;100.00
53908;BME280;40469;47.998;7.794;2022-12-11T02:58:23;98483.16;;;-3.15;100.00
53908;BME280;40469;47.998;7.794;2022-12-11T03:00:50;98471.16;;;-3.17;100.00
53908;BME280;40469;47.998;7.794;2022-12-11T03:03:16;98477.25;;;-3.14;100.00
53908;BME280;40469;47.998;7.794;2022-12-11T03:05:41;98479.91;;;-3.11;100.00
53908;BME280;40469;47.998;7.794;2022-12-11T03:08:07;98473.06;;;-3.12;100.00
53908;BME280;40469;47.998;7.794;2022-12-11T03:10:33;98482.44;;;-3.12;100.00
53908;BME280;40469;47.998;7.794;2022-12-11T03:12:59;98480.72;;;-3.12;100.00
53908;BME280;40469;47.998;7.794;2022-12-11T03:15:46;98478.81;;;-2.93;100.00
53908;BME280;40469;47.998;7.794;2022-12-11T03:18:24;98472.66;;;-3.00;100.00
53908;BME280;40469;47.998;7.794;2022-12-11T03:21:16;98476.78;;;-3.03;100.00
53908;BME280;40469;47.998;7.794;2022-12-11T03:23:53;98475.78;;;-3.07;100.00
53908;BME280;40469;47.998;7.794;2022-12-11T03:26:22;98475.81;;;-3.06;100.00
53908;BME280;40469;47.998;7.794;2022-12-11T03:28:56;98478.44;;;-3.04;100.00
53908;BME280;40469;47.998;7.794;2022-12-11T03:31:28;98486.03;;;-3.06;100.00
53908;BME280;40469;47.998;7.794;2022-12-11T03:33:59;98479.34;;;-3.03;100.00
53908;BME280;40469;47.998;7.794;2022-12-11T03:36:34;98479.28;;;-3.05;100.00
53908;BME280;40469;47.998;7.794;2022-12-11T03:39:14;98473.41;;;-3.02;100.00
53908;BME280;40469;47.998;7.794;2022-12-11T03:41:43;98477.75;;;-3.00;100.00
53908;BME280;40469;47.998;7.794;2022-12-11T03:44:11;98478.75;;;-2.96;100.00
53908;BME280;40469;47.998;7.794;2022-12-11T03:46:37;98472.75;;;-2.97;100.00
53908;BME280;40469;47.998;7.794;2022-12-11T03:49:12;98478.81;;;-2.93;100.00
53908;BME280;40469;47.998;7.794;2022-12-11T03:51:39;98480.63;;;-2.91;100.00
53908;BME280;40469;47.998;7.794;2022-12-11T03:54:06;98484.06;;;-2.90;100.00
53908;BME280;40469;47.998;7.794;2022-12-11T03:56:33;98478.94;;;-2.90;100.00
53908;BME280;40469;47.998;7.794;2022-12-11T03:58:59;98487.41;;;-2.91;100.00
53908;BME280;40469;47.998;7.794;2022-12-11T04:01:25;98480.16;;;-2.80;100.00
53908;BME280;40469;47.998;7.794;2022-12-11T04:03:50;98490.25;;;-2.83;100.00
53908;BME280;40469;47.998;7.794;2022-12-11T04:06:15;98486.66;;;-2.89;100.00
53908;BME280;40469;47.998;7.794;2022-12-11T04:08:41;98489.94;;;-2.93;100.00
53908;BME280;40469;47.998;7.794;2022-12-11T04:11:06;98498.34;;;-2.95;100.00
53908;BME280;40469;47.998;7.794;2022-12-11T04:13:49;98494.47;;;-3.08;100.00
53908;BME280;40469;47.998;7.794;2022-12-11T04:16:35;98492.78;;;-3.08;100.00
53908;BME280;40469;47.998;7.794;2022-12-11T04:19:00;98488.66;;;-3.04;100.00
53908;BME280;40469;47.998;7.794;2022-12-11T04:21:44;98495.53;;;-3.03;100.00
53908;BME280;40469;47.998;7.794;2022-12-11T04:24:28;98495.28;;;-3.09;100.00
53908;BME280;40469;47.998;7.794;2022-12-11T04:26:53;98494.84;;;-3.21;100.00
53908;BME280;40469;47.998;7.794;2022-12-11T04:29:18;98492.72;;;-3.33;100.00
53908;BME280;40469;47.998;7.794;2022-12-11T04:31:44;98485.72;;;-3.37;100.00
53908;BME280;40469;47.998;7.794;2022-12-11T04:34:10;98482.44;;;-3.35;100.00
53908;BME280;40469;47.998;7.794;2022-12-11T04:36:36;98487.53;;;-3.35;100.00
53908;BME280;40469;47.998;7.794;2022-12-11T04:39:02;98483.09;;;-3.40;100.00
53908;BME280;40469;47.998;7.794;2022-12-11T04:41:28;98492.47;;;-3.39;100.00
53908;BME280;40469;47.998;7.794;2022-12-11T04:43:53;98490.63;;;-3.44;100.00
53908;BME280;40469;47.998;7.794;2022-12-11T04:46:20;98488.19;;;-3.40;100.00
53908;BME280;40469;47.998;7.794;2022-12-11T04:48:47;98488.22;;;-3.39;100.00
53908;BME280;40469;47.998;7.794;2022-12-11T04:51:13;98485.66;;;-3.39;100.00
53908;BME280;40469;47.998;7.794;2022-12-11T04:53:39;98480.63;;;-3.37;100.00
53908;BME280;40469;47.998;7.794;2022-12-11T04:56:06;98482.25;;;-3.39;100.00
53908;BME280;40469;47.998;7.794;2022-12-11T04:58:32;98470.31;;;-3.40;100.00
53908;BME280;40469;47.998;7.794;2022-12-11T05:00:57;98471.25;;;-3.38;100.00
53908;BME280;40469;47.998;7.794;2022-12-11T05:03:23;98478.91;;;-3.38;100.00
53908;BME280;40469;47.998;7.794;2022-12-11T05:05:49;98480.56;;;-3.39;100.00
53908;BME280;40469;47.998;7.794;2022-12-11T05:08:18;98467.94;;;-3.36;100.00
53908;BME280;40469;47.998;7.794;2022-12-11T05:10:54;98479.06;;;-3.34;100.00
53908;BME280;40469;47.998;7.794;2022-12-11T05:13:19;98476.34;;;-3.38;100.00
53908;BME280;40469;47.998;7.794;2022-12-11T05:15:45;98471.06;;;-3.43;100.00
53908;BME280;40469;47.998;7.794;2022-12-11T05:18:10;98471.78;;;-3.47;100.00
53908;BME280;40469;47.998;7.794;2022-12-11T05:20:35;98472.50;;;-3.50;100.00
53908;BME280;40469;47.998;7.794;2022-12-11T05:23:00;98475.25;;;-3.45;100.00
53908;BME280;40469;47.998;7.794;2022-12-11T05:25:26;98457.13;;;-3.51;100.00
53908;BME280;40469;47.998;7.794;2022-12-11T05:27:51;98466.81;;;-3.43;100.00
53908;BME280;40469;47.998;7.794;2022-12-11T05:30:17;98458.25;;;-3.45;100.00
53908;BME280;40469;47.998;7.794;2022-12-11T05:32:42;98469.63;;;-3.36;100.00
53908;BME280;40469;47.998;7.794;2022-12-11T05:35:07;98462.13;;;-3.32;100.00
53908;BME280;40469;47.998;7.794;2022-12-11T05:37:33;98468.09;;;-3.31;100.00
53908;BME280;40469;47.998;7.794;2022-12-11T05:39:58;98467.41;;;-3.27;100.00
53908;BME280;40469;47.998;7.794;2022-12-11T05:42:24;98464.84;;;-3.27;100.00
53908;BME280;40469;47.998;7.794;2022-12-11T05:44:49;98462.22;;;-3.29;100.00
53908;BME280;40469;47.998;7.794;2022-12-11T05:47:14;98463.69;;;-3.35;100.00
53908;BME280;40469;47.998;7.794;2022-12-11T05:49:40;98465.63;;;-3.30;100.00
53908;BME280;40469;47.998;7.794;2022-12-11T05:52:06;98461.44;;;-3.28;100.00
53908;BME280;40469;47.998;7.794;2022-12-11T05:54:31;98456.31;;;-3.28;100.00
53908;BME280;40469;47.998;7.794;2022-12-11T05:56:56;98458.16;;;-3.24;100.00
53908;BME280;40469;47.998;7.794;2022-12-11T05:59:22;98446.13;;;-3.28;100.00
53908;BME280;40469;47.998;7.794;2022-12-11T06:01:47;98448.53;;;-3.31;100.00
53908;BME280;40469;47.998;7.794;2022-12-11T06:04:12;98444.03;;;-3.38;100.00
53908;BME280;40469;47.998;7.794;2022-12-11T06:06:38;98450.59;;;-3.45;100.00
53908;BME280;40469;47.998;7.794;2022-12-11T06:09:05;98456.22;;;-3.53;100.00
53908;BME280;40469;47.998;7.794;2022-12-11T06:11:32;98456.78;;;-3.60;100.00
53908;BME280;40469;47.998;7.794;2022-12-11T06:14:00;98456.59;;;-3.67;100.00
53908;BME280;40469;47.998;7.794;2022-12-11T06:16:26;98456.66;;;-3.65;100.00
53908;BME280;40469;47.998;7.794;2022-12-11T06:18:51;98452.41;;;-3.65;100.00
53908;BME280;40469;47.998;7.794;2022-12-11T06:21:22;98451.81;;;-3.57;100.00
53908;BME280;40469;47.998;7.794;2022-12-11T06:23:49;98458.88;;;-3.73;100.00
53908;BME280;40469;47.998;7.794;2022-12-11T06:26:16;98448.41;;;-3.81;100.00
53908;BME280;40469;47.998;7.794;2022-12-11T06:28:41;98455.13;;;-3.83;100.00
53908;BME280;40469;47.998;7.794;2022-12-11T06:31:07;98449.31;;;-3.78;100.00
53908;BME280;40469;47.998;7.794;2022-12-11T06:33:33;98447.41;;;-3.84;100.00
53908;BME280;40469;47.998;7.794;2022-12-11T06:36:03;98444.09;;;-3.82;100.00
53908;BME280;40469;47.998;7.794;2022-12-11T06:38:29;98435.09;;;-3.94;100.00
53908;BME280;40469;47.998;7.794;2022-12-11T06:40:56;98438.66;;;-3.91;100.00
53908;BME280;40469;47.998;7.794;2022-12-11T06:43:21;98441.41;;;-4.07;100.00
53908;BME280;40469;47.998;7.794;2022-12-11T06:45:47;98435.25;;;-4.12;100.00
53908;BME280;40469;47.998;7.794;2022-12-11T06:48:12;98426.78;;;-4.11;100.00
53908;BME280;40469;47.998;7.794;2022-12-11T06:50:37;98430.53;;;-4.03;100.00
53908;BME280;40469;47.998;7.794;2022-12-11T06:53:03;98428.66;;;-4.07;100.00
53908;BME280;40469;47.998;7.794;2022-12-11T06:55:28;98434.13;;;-3.98;100.00
53908;BME280;40469;47.998;7.794;2022-12-11T06:57:54;98443.97;;;-4.07;100.00
53908;BME280;40469;47.998;7.794;2022-12-11T07:00:19;98445.31;;;-3.94;100.00
53908;BME280;40469;47.998;7.794;2022-12-11T07:02:45;98456.22;;;-3.98;100.00
53908;BME280;40469;47.998;7.794;2022-12-11T07:05:10;98458.19;;;-3.91;100.00
53908;BME280;40469;47.998;7.794;2022-12-11T07:07:35;98453.31;;;-3.85;100.00
53908;BME280;40469;47.998;7.794;2022-12-11T07:10:00;98454.22;;;-3.83;100.00
53908;BME280;40469;47.998;7.794;2022-12-11T07:12:26;98457.16;;;-3.74;100.00
53908;BME280;40469;47.998;7.794;2022-12-11T07:14:51;98463.84;;;-3.76;100.00
53908;BME280;40469;47.998;7.794;2022-12-11T07:17:17;98460.50;;;-3.75;100.00
53908;BME280;40469;47.998;7.794;2022-12-11T07:19:42;98462.41;;;-3.69;100.00
53908;BME280;40469;47.998;7.794;2022-12-11T07:22:07;98471.63;;;-3.73;100.00
53908;BME280;40469;47.998;7.794;2022-12-11T07:24:33;98470.00;;;-3.71;100.00
53908;BME280;40469;47.998;7.794;2022-12-11T07:26:58;98466.84;;;-3.65;100.00
53908;BME280;40469;47.998;7.794;2022-12-11T07:29:24;98472.63;;;-3.69;100.00
53908;BME280;40469;47.998;7.794;2022-12-11T07:31:49;98470.72;;;-3.75;100.00
53908;BME280;40469;47.998;7.794;2022-12-11T07:34:14;98482.88;;;-3.68;100.00
53908;BME280;40469;47.998;7.794;2022-12-11T07:36:40;98489.63;;;-3.70;100.00
53908;BME280;40469;47.998;7.794;2022-12-11T07:39:05;98491.19;;;-3.73;100.00
53908;BME280;40469;47.998;7.794;2022-12-11T07:41:31;98485.69;;;-3.62;100.00
53908;BME280;40469;47.998;7.794;2022-12-11T07:43:58;98494.56;;;-3.52;100.00
53908;BME280;40469;47.998;7.794;2022-12-11T07:46:26;98492.50;;;-3.60;100.00
53908;BME280;40469;47.998;7.794;2022-12-11T07:48:52;98502.56;;;-3.65;100.00
53908;BME280;40469;47.998;7.794;2022-12-11T07:51:30;98494.63;;;-3.50;100.00
53908;BME280;40469;47.998;7.794;2022-12-11T07:54:04;98507.63;;;-3.44;100.00
53908;BME280;40469;47.998;7.794;2022-12-11T07:56:31;98509.47;;;-3.40;100.00
53908;BME280;40469;47.998;7.794;2022-12-11T07:59:04;98511.84;;;-3.45;100.00
53908;BME280;40469;47.998;7.794;2022-12-11T08:01:31;98502.53;;;-3.44;100.00
53908;BME280;40469;47.998;7.794;2022-12-11T08:03:57;98503.13;;;-3.50;100.00
53908;BME280;40469;47.998;7.794;2022-12-11T08:06:28;98506.22;;;-3.36;100.00
53908;BME280;40469;47.998;7.794;2022-12-11T08:08:54;98510.72;;;-3.29;100.00
53908;BME280;40469;47.998;7.794;2022-12-11T08:11:20;98502.63;;;-3.41;100.00
53908;BME280;40469;47.998;7.794;2022-12-11T08:13:45;98504.69;;;-3.31;100.00
53908;BME280;40469;47.998;7.794;2022-12-11T08:16:13;98501.09;;;-3.36;100.00
53908;BME280;40469;47.998;7.794;2022-12-11T08:18:38;98498.75;;;-3.31;100.00
53908;BME280;40469;47.998;7.794;2022-12-11T08:21:09;98503.72;;;-3.34;100.00
53908;BME280;40469;47.998;7.794;2022-12-11T08:23:35;98496.41;;;-3.25;100.00
53908;BME280;40469;47.998;7.794;2022-12-11T08:26:04;98492.41;;;-3.18;100.00
53908;BME280;40469;47.998;7.794;2022-12-11T08:28:31;98500.19;;;-3.15;100.00
53908;BME280;40469;47.998;7.794;2022-12-11T08:30:58;98504.88;;;-3.26;100.00
53908;BME280;40469;47.998;7.794;2022-12-11T08:33:23;98504.69;;;-3.31;100.00
53908;BME280;40469;47.998;7.794;2022-12-11T08:35:49;98500.91;;;-3.18;100.00
53908;BME280;40469;47.998;7.794;2022-12-11T08:38:14;98501.16;;;-3.12;100.00
53908;BME280;40469;47.998;7.794;2022-12-11T08:40:40;98500.31;;;-3.11;100.00
53908;BME280;40469;47.998;7.794;2022-12-11T08:43:05;98509.47;;;-3.17;100.00
53908;BME280;40469;47.998;7.794;2022-12-11T08:45:31;98495.13;;;-3.14;100.00
53908;BME280;40469;47.998;7.794;2022-12-11T08:47:59;98495.47;;;-3.27;100.00
53908;BME280;40469;47.998;7.794;2022-12-11T08:50:25;98483.63;;;-3.25;100.00
53908;BME280;40469;47.998;7.794;2022-12-11T08:52:50;98491.94;;;-3.31;100.00
53908;BME280;40469;47.998;7.794;2022-12-11T08:55:16;98480.03;;;-3.30;100.00
53908;BME280;40469;47.998;7.794;2022-12-11T08:57:41;98480.41;;;-3.44;100.00
53908;BME280;40469;47.998;7.794;2022-12-11T09:00:07;98482.38;;;-3.36;100.00
53908;BME280;40469;47.998;7.794;2022-12-11T09:02:34;98484.75;;;-3.41;100.00
53908;BME280;40469;47.998;7.794;2022-12-11T09:04:59;98472.81;;;-3.42;100.00
53908;BME280;40469;47.998;7.794;2022-12-11T09:07:25;98477.00;;;-3.44;100.00
53908;BME280;40469;47.998;7.794;2022-12-11T09:09:53;98468.56;;;-3.41;100.00
53908;BME280;40469;47.998;7.794;2022-12-11T09:12:19;98480.63;;;-3.37;100.00
53908;BME280;40469;47.998;7.794;2022-12-11T09:14:44;98477.03;;;-3.43;100.00
53908;BME280;40469;47.998;7.794;2022-12-11T09:17:09;98472.91;;;-3.39;100.00
53908;BME280;40469;47.998;7.794;2022-12-11T09:19:35;98474.25;;;-3.26;100.00
53908;BME280;40469;47.998;7.794;2022-12-11T09:22:00;98472.69;;;-2.98;100.00
53908;BME280;40469;47.998;7.794;2022-12-11T09:24:26;98472.84;;;-2.70;100.00
53908;BME280;40469;47.998;7.794;2022-12-11T09:26:51;98466.53;;;-2.55;100.00
53908;BME280;40469;47.998;7.794;2022-12-11T09:29:16;98462.91;;;-2.36;100.00
53908;BME280;40469;47.998;7.794;2022-12-11T09:31:42;98461.94;;;-1.87;100.00
53908;BME280;40469;47.998;7.794;2022-12-11T09:34:10;98462.38;;;-1.44;100.00
53908;BME280;40469;47.998;7.794;2022-12-11T09:36:40;98455.94;;;-1.00;100.00
53908;BME280;40469;47.998;7.794;2022-12-11T09:39:07;98451.56;;;-1.04;100.00
53908;BME280;40469;47.998;7.794;2022-12-11T09:44:15;98456.09;;;-0.28;100.00
53908;BME280;40469;47.998;7.794;2022-12-11T09:46:42;98452.53;;;0.00;100.00
53908;BME280;40469;47.998;7.794;2022-12-11T09:49:37;98446.34;;;0.28;100.00
53908;BME280;40469;47.998;7.794;2022-12-11T09:52:14;98439.91;;;0.47;100.00
53908;BME280;40469;47.998;7.794;2022-12-11T09:54:49;98432.59;;;1.08;100.00
53908;BME280;40469;47.998;7.794;2022-12-11T09:57:50;98432.72;;;1.16;100.00
53908;BME280;40469;47.998;7.794;2022-12-11T10:00:34;98432.75;;;0.73;100.00
53908;BME280;40469;47.998;7.794;2022-12-11T10:05:49;98423.97;;;0.62;100.00
53908;BME280;40469;47.998;7.794;2022-12-11T10:16:38;98411.38;;;-0.40;100.00
53908;BME280;40469;47.998;7.794;2022-12-11T10:19:05;98410.56;;;-0.39;100.00
53908;BME280;40469;47.998;7.794;2022-12-11T10:21:39;98407.34;;;-0.28;100.00
53908;BME280;40469;47.998;7.794;2022-12-11T10:24:17;98404.63;;;0.01;100.00
53908;BME280;40469;47.998;7.794;2022-12-11T10:26:45;98389.50;;;0.13;100.00
53908;BME280;40469;47.998;7.794;2022-12-11T10:29:13;98382.66;;;0.51;100.00
53908;BME280;40469;47.998;7.794;2022-12-11T10:34:35;98386.28;;;0.22;100.00
53908;BME280;40469;47.998;7.794;2022-12-11T10:37:04;98379.25;;;0.54;100.00
53908;BME280;40469;47.998;7.794;2022-12-11T10:39:29;98367.53;;;-0.50;100.00
53908;BME280;40469;47.998;7.794;2022-12-11T10:41:55;98373.53;;;-0.13;100.00
53908;BME280;40469;47.998;7.794;2022-12-11T10:44:31;98369.47;;;-0.75;100.00
53908;BME280;40469;47.998;7.794;2022-12-11T10:47:11;98361.72;;;-0.43;100.00
53908;BME280;40469;47.998;7.794;2022-12-11T10:49:41;98363.81;;;0.11;100.00
53908;BME280;40469;47.998;7.794;2022-12-11T10:52:19;98355.81;;;0.38;100.00
53908;BME280;40469;47.998;7.794;2022-12-11T10:54:54;98363.19;;;0.22;100.00
53908;BME280;40469;47.998;7.794;2022-12-11T10:57:26;98350.16;;;0.53;100.00
53908;BME280;40469;47.998;7.794;2022-12-11T10:59:52;98348.75;;;-0.49;100.00
53908;BME280;40469;47.998;7.794;2022-12-11T11:02:25;98343.41;;;-0.57;100.00
53908;BME280;40469;47.998;7.794;2022-12-11T11:04:52;98341.00;;;-0.14;100.00
53908;BME280;40469;47.998;7.794;2022-12-11T11:07:19;98340.00;;;-0.58;100.00
53908;BME280;40469;47.998;7.794;2022-12-11T11:09:45;98337.91;;;-0.38;100.00
53908;BME280;40469;47.998;7.794;2022-12-11T11:12:25;98346.81;;;0.16;100.00
53908;BME280;40469;47.998;7.794;2022-12-11T11:15:04;98347.16;;;-0.06;100.00
53908;BME280;40469;47.998;7.794;2022-12-11T11:17:31;98337.31;;;0.53;100.00
53908;BME280;40469;47.998;7.794;2022-12-11T11:20:10;98338.41;;;0.66;100.00
53908;BME280;40469;47.998;7.794;2022-12-11T11:22:48;98339.88;;;0.99;100.00
53908;BME280;40469;47.998;7.794;2022-12-11T11:25:20;98338.38;;;0.65;100.00
53908;BME280;40469;47.998;7.794;2022-12-11T11:27:52;98325.47;;;0.19;100.00
53908;BME280;40469;47.998;7.794;2022-12-11T11:30:30;98332.31;;;-0.21;100.00
53908;BME280;40469;47.998;7.794;2022-12-11T11:32:58;98319.97;;;-0.74;100.00
53908;BME280;40469;47.998;7.794;2022-12-11T11:35:29;98320.97;;;-1.02;100.00
53908;BME280;40469;47.998;7.794;2022-12-11T11:38:17;98328.31;;;-1.15;100.00
53908;BME280;40469;47.998;7.794;2022-12-11T11:40:52;98329.94;;;-1.48;100.00
53908;BME280;40469;47.998;7.794;2022-12-11T11:43:42;98327.66;;;-1.39;100.00
53908;BME280;40469;47.998;7.794;2022-12-11T11:46:25;98331.50;;;-1.55;100.00
53908;BME280;40469;47.998;7.794;2022-12-11T11:51:58;98332.66;;;-1.74;100.00
53908;BME280;40469;47.998;7.794;2022-12-11T11:55:08;98328.00;;;-1.59;100.00
53908;BME280;40469;47.998;7.794;2022-12-11T11:57:42;98328.66;;;-1.64;100.00
53908;BME280;40469;47.998;7.794;2022-12-11T12:00:21;98328.53;;;-1.69;100.00
53908;BME280;40469;47.998;7.794;2022-12-11T12:02:48;98320.25;;;-1.91;100.00
53908;BME280;40469;47.998;7.794;2022-12-11T12:05:21;98319.63;;;-1.82;100.00
53908;BME280;40469;47.998;7.794;2022-12-11T12:10:31;98315.50;;;-1.78;100.00
53908;BME280;40469;47.998;7.794;2022-12-11T12:18:37;98331.44;;;-1.57;100.00
53908;BME280;40469;47.998;7.794;2022-12-11T12:21:34;98336.44;;;-1.29;100.00
53908;BME280;40469;47.998;7.794;2022-12-11T12:26:59;98325.72;;;-1.48;100.00
53908;BME280;40469;47.998;7.794;2022-12-11T12:29:46;98333.34;;;-1.49;100.00
53908;BME280;40469;47.998;7.794;2022-12-11T12:32:28;98329.09;;;-1.79;100.00
53908;BME280;40469;47.998;7.794;2022-12-11T12:37:58;98330.25;;;-2.27;100.00
53908;BME280;40469;47.998;7.794;2022-12-11T12:41:12;98331.59;;;-2.11;100.00
53908;BME280;40469;47.998;7.794;2022-12-11T12:43:55;98327.38;;;-2.09;100.00
53908;BME280;40469;47.998;7.794;2022-12-11T12:46:42;98325.56;;;-2.13;100.00
53908;BME280;40469;47.998;7.794;2022-12-11T12:49:15;98325.81;;;-2.60;100.00
53908;BME280;40469;47.998;7.794;2022-12-11T12:51:41;98329.19;;;-2.61;100.00
53908;BME280;40469;47.998;7.794;2022-12-11T12:54:11;98331.81;;;-2.59;100.00
53908;BME280;40469;47.998;7.794;2022-12-11T12:56:39;98325.63;;;-2.66;100.00
53908;BME280;40469;47.998;7.794;2022-12-11T12:59:26;98332.03;;;-2.52;100.00
53908;BME280;40469;47.998;7.794;2022-12-11T13:01:55;98339.25;;;-2.65;100.00
53908;BME280;40469;47.998;7.794;2022-12-11T13:07:10;98344.22;;;-2.70;100.00
53908;BME280;40469;47.998;7.794;2022-12-11T13:09:36;98343.91;;;-2.79;100.00
53908;BME280;40469;47.998;7.794;2022-12-11T13:12:11;98353.78;;;-2.90;100.00
53908;BME280;40469;47.998;7.794;2022-12-11T13:14:37;98349.59;;;-3.38;100.00
53908;BME280;40469;47.998;7.794;2022-12-11T13:19:47;98345.28;;;-3.15;100.00
53908;BME280;40469;47.998;7.794;2022-12-11T13:22:19;98348.50;;;-3.20;100.00
53908;BME280;40469;47.998;7.794;2022-12-11T13:25:00;98340.91;;;-3.19;100.00
53908;BME280;40469;47.998;7.794;2022-12-11T13:27:37;98349.47;;;-3.17;100.00
53908;BME280;40469;47.998;7.794;2022-12-11T13:30:27;98341.88;;;-3.15;100.00
53908;BME280;40469;47.998;7.794;2022-12-11T13:33:06;98345.53;;;-3.33;100.00
53908;BME280;40469;47.998;7.794;2022-12-11T13:35:39;98338.53;;;-3.38;100.00
53908;BME280;40469;47.998;7.794;2022-12-11T13:38:16;98344.50;;;-3.14;100.00
53908;BME280;40469;47.998;7.794;2022-12-11T13:40:44;98341.81;;;-3.17;100.00
53908;BME280;40469;47.998;7.794;2022-12-11T13:43:17;98340.03;;;-2.94;100.00
53908;BME280;40469;47.998;7.794;2022-12-11T13:48:22;98344.53;;;-2.87;100.00